sensor_id;sensor_type;location;lat;lon;timestamp;P1;durP1;ratioP1;P2;durP2;ratioP2
10641;SDS011;5369;49.586;8.646;2023-02-15T00:01:52;42.37;;;22.20;;
10641;SDS011;5369;49.586;8.646;2023-02-15T00:04:20;35.80;;;20.97;;
10641;SDS011;5369;49.586;8.646;2023-02-15T00:06:46;47.40;;;22.50;;
10641;SDS011;5369;49.586;8.646;2023-02-15T00:09:12;54.67;;;24.00;;
10641;SDS011;5369;49.586;8.646;2023-02-15T00:11:39;47.43;;;22.87;;
10641;SDS011;5369;49.586;8.646;2023-02-15T00:14:13;43.13;;;22.30;;
10641;SDS011;5369;49.586;8.646;2023-02-15T00:16:39;42.13;;;21.80;;
10641;SDS011;5369;49.586;8.646;2023-02-15T00:19:06;39.53;;;20.80;;
10641;SDS011;5369;49.586;8.646;2023-02-15T00:21:33;48.60;;;21.23;;
10641;SDS011;5369;49.586;8.646;2023-02-15T00:24:00;49.13;;;22.33;;
10641;SDS011;5369;49.586;8.646;2023-02-15T00:26:27;51.30;;;21.30;;
10641;SDS011;5369;49.586;8.646;2023-02-15T00:28:54;52.53;;;21.20;;
10641;SDS011;5369;49.586;8.646;2023-02-15T00:31:20;66.07;;;23.37;;
10641;SDS011;5369;49.586;8.646;2023-02-15T00:33:46;51.87;;;22.87;;
10641;SDS011;5369;49.586;8.646;2023-02-15T00:36:13;42.67;;;20.47;;
10641;SDS011;5369;49.586;8.646;2023-02-15T00:38:39;58.47;;;22.97;;
10641;SDS011;5369;49.586;8.646;2023-02-15T00:41:06;42.10;;;22.00;;
10641;SDS011;5369;49.586;8.646;2023-02-15T00:43:33;44.83;;;23.27;;
10641;SDS011;5369;49.586;8.646;2023-02-15T00:46:00;48.67;;;21.60;;
10641;SDS011;5369;49.586;8.646;2023-02-15T00:48:27;56.17;;;24.20;;
10641;SDS011;5369;49.586;8.646;2023-02-15T00:50:54;57.30;;;23.60;;
10641;SDS011;5369;49.586;8.646;2023-02-15T00:53:21;48.03;;;22.03;;
10641;SDS011;5369;49.586;8.646;2023-02-15T00:55:48;48.60;;;21.07;;
10641;SDS011;5369;49.586;8.646;2023-02-15T00:58:14;55.23;;;21.67;;
10641;SDS011;5369;49.586;8.646;2023-02-15T01:00:41;56.13;;;22.13;;
10641;SDS011;5369;49.586;8.646;2023-02-15T01:03:08;46.07;;;20.50;;
10641;SDS011;5369;49.586;8.646;2023-02-15T01:05:35;47.70;;;20.87;;
10641;SDS011;5369;49.586;8.646;2023-02-15T01:08:02;39.67;;;21.33;;
10641;SDS011;5369;49.586;8.646;2023-02-15T01:10:29;41.13;;;21.20;;
10641;SDS011;5369;49.586;8.646;2023-02-15T01:12:55;46.70;;;21.80;;
10641;SDS011;5369;49.586;8.646;2023-02-15T01:15:22;44.57;;;22.53;;
10641;SDS011;5369;49.586;8.646;2023-02-15T01:17:49;35.57;;;19.90;;
10641;SDS011;5369;49.586;8.646;2023-02-15T01:20:20;35.13;;;19.60;;
10641;SDS011;5369;49.586;8.646;2023-02-15T01:22:48;36.73;;;19.03;;
10641;SDS011;5369;49.586;8.646;2023-02-15T01:25:18;38.00;;;20.27;;
10641;SDS011;5369;49.586;8.646;2023-02-15T01:27:45;38.73;;;19.57;;
10641;SDS011;5369;49.586;8.646;2023-02-15T01:30:12;40.23;;;20.70;;
10641;SDS011;5369;49.586;8.646;2023-02-15T01:32:38;35.50;;;19.50;;
10641;SDS011;5369;49.586;8.646;2023-02-15T01:35:05;30.27;;;18.53;;
10641;SDS011;5369;49.586;8.646;2023-02-15T01:37:31;32.03;;;18.23;;
10641;SDS011;5369;49.586;8.646;2023-02-15T01:39:58;31.37;;;18.60;;
10641;SDS011;5369;49.586;8.646;2023-02-15T01:42:25;31.73;;;18.20;;
10641;SDS011;5369;49.586;8.646;2023-02-15T01:44:52;34.97;;;18.67;;
10641;SDS011;5369;49.586;8.646;2023-02-15T01:50:00;30.47;;;17.97;;
10641;SDS011;5369;49.586;8.646;2023-02-15T01:52:27;32.37;;;18.73;;
10641;SDS011;5369;49.586;8.646;2023-02-15T01:54:54;30.63;;;17.57;;
10641;SDS011;5369;49.586;8.646;2023-02-15T01:57:22;38.17;;;19.67;;
10641;SDS011;5369;49.586;8.646;2023-02-15T01:59:52;33.57;;;18.90;;
10641;SDS011;5369;49.586;8.646;2023-02-15T02:02:20;31.57;;;18.03;;
10641;SDS011;5369;49.586;8.646;2023-02-15T02:04:51;30.90;;;16.73;;
10641;SDS011;5369;49.586;8.646;2023-02-15T02:07:19;32.43;;;17.67;;
10641;SDS011;5369;49.586;8.646;2023-02-15T02:09:46;30.13;;;18.27;;
10641;SDS011;5369;49.586;8.646;2023-02-15T02:12:13;31.50;;;17.70;;
10641;SDS011;5369;49.586;8.646;2023-02-15T02:14:39;30.77;;;17.77;;
10641;SDS011;5369;49.586;8.646;2023-02-15T02:17:07;37.23;;;19.53;;
10641;SDS011;5369;49.586;8.646;2023-02-15T02:22:08;30.73;;;17.10;;
10641;SDS011;5369;49.586;8.646;2023-02-15T02:35:18;41.27;;;20.20;;
10641;SDS011;5369;49.586;8.646;2023-02-15T02:38:00;34.40;;;18.47;;
10641;SDS011;5369;49.586;8.646;2023-02-15T02:43:18;33.83;;;19.13;;
10641;SDS011;5369;49.586;8.646;2023-02-15T02:45:50;33.63;;;18.70;;
10641;SDS011;5369;49.586;8.646;2023-02-15T02:48:19;34.10;;;18.80;;
10641;SDS011;5369;49.586;8.646;2023-02-15T02:50:48;31.20;;;16.97;;
10641;SDS011;5369;49.586;8.646;2023-02-15T02:53:15;33.17;;;18.90;;
10641;SDS011;5369;49.586;8.646;2023-02-15T02:55:50;35.50;;;18.53;;
10641;SDS011;5369;49.586;8.646;2023-02-15T03:03:14;33.57;;;18.53;;
10641;SDS011;5369;49.586;8.646;2023-02-15T03:05:45;37.00;;;17.77;;
10641;SDS011;5369;49.586;8.646;2023-02-15T03:08:14;30.97;;;16.67;;
10641;SDS011;5369;49.586;8.646;2023-02-15T03:10:47;27.97;;;15.93;;
10641;SDS011;5369;49.586;8.646;2023-02-15T03:13:14;27.40;;;16.60;;
10641;SDS011;5369;49.586;8.646;2023-02-15T03:15:40;35.17;;;17.93;;
10641;SDS011;5369;49.586;8.646;2023-02-15T03:18:29;34.77;;;18.87;;
10641;SDS011;5369;49.586;8.646;2023-02-15T03:20:57;44.10;;;17.53;;
10641;SDS011;5369;49.586;8.646;2023-02-15T03:23:25;45.47;;;19.77;;
10641;SDS011;5369;49.586;8.646;2023-02-15T03:25:58;30.87;;;17.90;;
10641;SDS011;5369;49.586;8.646;2023-02-15T03:28:28;29.60;;;17.00;;
10641;SDS011;5369;49.586;8.646;2023-02-15T03:30:56;29.43;;;17.13;;
10641;SDS011;5369;49.586;8.646;2023-02-15T03:33:23;31.57;;;17.43;;
10641;SDS011;5369;49.586;8.646;2023-02-15T03:35:52;30.27;;;17.00;;
10641;SDS011;5369;49.586;8.646;2023-02-15T03:38:25;30.73;;;17.20;;
10641;SDS011;5369;49.586;8.646;2023-02-15T03:40:52;34.07;;;17.70;;
10641;SDS011;5369;49.586;8.646;2023-02-15T03:43:40;39.83;;;19.63;;
10641;SDS011;5369;49.586;8.646;2023-02-15T03:46:13;37.43;;;19.57;;
10641;SDS011;5369;49.586;8.646;2023-02-15T03:48:52;39.03;;;20.37;;
10641;SDS011;5369;49.586;8.646;2023-02-15T03:51:20;40.30;;;19.77;;
10641;SDS011;5369;49.586;8.646;2023-02-15T03:56:33;38.60;;;20.33;;
10641;SDS011;5369;49.586;8.646;2023-02-15T03:58:59;37.47;;;18.47;;
10641;SDS011;5369;49.586;8.646;2023-02-15T04:01:48;36.90;;;19.47;;
10641;SDS011;5369;49.586;8.646;2023-02-15T04:04:37;32.73;;;18.50;;
10641;SDS011;5369;49.586;8.646;2023-02-15T04:07:05;35.40;;;18.87;;
10641;SDS011;5369;49.586;8.646;2023-02-15T04:09:31;42.93;;;20.57;;
10641;SDS011;5369;49.586;8.646;2023-02-15T04:12:16;36.80;;;18.20;;
10641;SDS011;5369;49.586;8.646;2023-02-15T04:14:42;40.03;;;19.57;;
10641;SDS011;5369;49.586;8.646;2023-02-15T04:17:28;46.67;;;21.17;;
10641;SDS011;5369;49.586;8.646;2023-02-15T04:19:55;40.80;;;20.23;;
10641;SDS011;5369;49.586;8.646;2023-02-15T04:22:39;36.77;;;18.47;;
10641;SDS011;5369;49.586;8.646;2023-02-15T04:25:24;37.27;;;19.00;;
10641;SDS011;5369;49.586;8.646;2023-02-15T04:27:51;43.53;;;20.80;;
10641;SDS011;5369;49.586;8.646;2023-02-15T04:30:19;40.13;;;18.93;;
10641;SDS011;5369;49.586;8.646;2023-02-15T04:32:46;38.10;;;19.47;;
10641;SDS011;5369;49.586;8.646;2023-02-15T04:35:12;36.33;;;19.27;;
10641;SDS011;5369;49.586;8.646;2023-02-15T04:37:39;35.67;;;18.43;;
10641;SDS011;5369;49.586;8.646;2023-02-15T04:40:06;33.97;;;17.97;;
10641;SDS011;5369;49.586;8.646;2023-02-15T04:42:32;36.73;;;18.33;;
10641;SDS011;5369;49.586;8.646;2023-02-15T04:44:59;36.80;;;18.30;;
10641;SDS011;5369;49.586;8.646;2023-02-15T04:47:25;33.40;;;17.73;;
10641;SDS011;5369;49.586;8.646;2023-02-15T04:49:51;38.40;;;19.07;;
10641;SDS011;5369;49.586;8.646;2023-02-15T04:52:17;33.67;;;17.60;;
10641;SDS011;5369;49.586;8.646;2023-02-15T04:54:44;32.30;;;17.50;;
10641;SDS011;5369;49.586;8.646;2023-02-15T04:57:10;33.40;;;17.20;;
10641;SDS011;5369;49.586;8.646;2023-02-15T04:59:36;33.40;;;18.00;;
10641;SDS011;5369;49.586;8.646;2023-02-15T05:02:02;34.70;;;16.63;;
10641;SDS011;5369;49.586;8.646;2023-02-15T05:04:29;31.87;;;16.97;;
10641;SDS011;5369;49.586;8.646;2023-02-15T05:06:55;34.90;;;18.43;;
10641;SDS011;5369;49.586;8.646;2023-02-15T05:09:21;33.93;;;17.47;;
10641;SDS011;5369;49.586;8.646;2023-02-15T05:11:47;32.30;;;18.08;;
10641;SDS011;5369;49.586;8.646;2023-02-15T05:14:13;35.20;;;17.80;;
10641;SDS011;5369;49.586;8.646;2023-02-15T05:16:39;29.77;;;15.70;;
10641;SDS011;5369;49.586;8.646;2023-02-15T05:19:06;28.93;;;16.47;;
10641;SDS011;5369;49.586;8.646;2023-02-15T05:21:33;34.63;;;17.63;;
10641;SDS011;5369;49.586;8.646;2023-02-15T05:23:59;32.13;;;17.03;;
10641;SDS011;5369;49.586;8.646;2023-02-15T05:26:25;29.80;;;17.53;;
10641;SDS011;5369;49.586;8.646;2023-02-15T05:29:10;33.47;;;16.93;;
10641;SDS011;5369;49.586;8.646;2023-02-15T05:31:36;32.60;;;16.33;;
10641;SDS011;5369;49.586;8.646;2023-02-15T05:34:03;28.27;;;15.47;;
10641;SDS011;5369;49.586;8.646;2023-02-15T05:36:29;30.50;;;16.60;;
10641;SDS011;5369;49.586;8.646;2023-02-15T05:38:55;28.90;;;15.23;;
10641;SDS011;5369;49.586;8.646;2023-02-15T05:41:21;28.50;;;15.27;;
10641;SDS011;5369;49.586;8.646;2023-02-15T05:43:47;31.03;;;15.97;;
10641;SDS011;5369;49.586;8.646;2023-02-15T05:46:13;32.70;;;18.77;;
10641;SDS011;5369;49.586;8.646;2023-02-15T05:48:40;33.42;;;18.83;;
10641;SDS011;5369;49.586;8.646;2023-02-15T05:51:07;34.83;;;17.40;;
10641;SDS011;5369;49.586;8.646;2023-02-15T05:53:34;31.33;;;16.73;;
10641;SDS011;5369;49.586;8.646;2023-02-15T05:56:01;33.40;;;17.63;;
10641;SDS011;5369;49.586;8.646;2023-02-15T05:58:34;34.93;;;17.97;;
10641;SDS011;5369;49.586;8.646;2023-02-15T06:01:10;31.93;;;16.83;;
10641;SDS011;5369;49.586;8.646;2023-02-15T06:03:36;35.17;;;17.47;;
10641;SDS011;5369;49.586;8.646;2023-02-15T06:06:03;33.33;;;17.73;;
10641;SDS011;5369;49.586;8.646;2023-02-15T06:08:30;35.60;;;17.43;;
10641;SDS011;5369;49.586;8.646;2023-02-15T06:10:56;33.90;;;18.00;;
10641;SDS011;5369;49.586;8.646;2023-02-15T06:13:22;37.03;;;20.65;;
10641;SDS011;5369;49.586;8.646;2023-02-15T06:15:48;39.83;;;19.70;;
10641;SDS011;5369;49.586;8.646;2023-02-15T06:18:14;37.23;;;19.30;;
10641;SDS011;5369;49.586;8.646;2023-02-15T06:20:41;34.80;;;18.33;;
10641;SDS011;5369;49.586;8.646;2023-02-15T06:23:07;35.78;;;20.05;;
10641;SDS011;5369;49.586;8.646;2023-02-15T06:25:33;39.07;;;19.80;;
10641;SDS011;5369;49.586;8.646;2023-02-15T06:27:59;34.73;;;17.93;;
10641;SDS011;5369;49.586;8.646;2023-02-15T06:30:25;35.80;;;17.90;;
10641;SDS011;5369;49.586;8.646;2023-02-15T06:32:52;36.13;;;20.27;;
10641;SDS011;5369;49.586;8.646;2023-02-15T06:35:18;31.57;;;18.27;;
10641;SDS011;5369;49.586;8.646;2023-02-15T06:37:45;33.10;;;18.27;;
10641;SDS011;5369;49.586;8.646;2023-02-15T06:40:12;32.40;;;17.57;;
10641;SDS011;5369;49.586;8.646;2023-02-15T06:42:38;31.50;;;16.63;;
10641;SDS011;5369;49.586;8.646;2023-02-15T06:45:04;33.63;;;17.23;;
10641;SDS011;5369;49.586;8.646;2023-02-15T06:47:30;32.83;;;18.77;;
10641;SDS011;5369;49.586;8.646;2023-02-15T06:49:56;29.80;;;16.27;;
10641;SDS011;5369;49.586;8.646;2023-02-15T06:52:23;31.03;;;16.80;;
10641;SDS011;5369;49.586;8.646;2023-02-15T06:54:49;28.73;;;16.13;;
10641;SDS011;5369;49.586;8.646;2023-02-15T06:57:15;29.23;;;16.90;;
10641;SDS011;5369;49.586;8.646;2023-02-15T06:59:41;33.90;;;18.20;;
10641;SDS011;5369;49.586;8.646;2023-02-15T07:02:08;32.50;;;18.63;;
10641;SDS011;5369;49.586;8.646;2023-02-15T07:04:34;29.43;;;16.53;;
10641;SDS011;5369;49.586;8.646;2023-02-15T07:07:00;27.93;;;16.57;;
10641;SDS011;5369;49.586;8.646;2023-02-15T07:09:27;29.53;;;16.87;;
10641;SDS011;5369;49.586;8.646;2023-02-15T07:11:53;28.87;;;16.33;;
10641;SDS011;5369;49.586;8.646;2023-02-15T07:14:38;31.03;;;17.27;;
10641;SDS011;5369;49.586;8.646;2023-02-15T07:17:05;28.77;;;15.97;;
10641;SDS011;5369;49.586;8.646;2023-02-15T07:19:31;29.10;;;16.40;;
10641;SDS011;5369;49.586;8.646;2023-02-15T07:21:58;30.20;;;17.17;;
10641;SDS011;5369;49.586;8.646;2023-02-15T07:24:25;32.17;;;17.93;;
10641;SDS011;5369;49.586;8.646;2023-02-15T07:26:51;32.00;;;18.53;;
10641;SDS011;5369;49.586;8.646;2023-02-15T07:29:17;27.17;;;16.43;;
10641;SDS011;5369;49.586;8.646;2023-02-15T07:31:43;28.07;;;16.37;;
10641;SDS011;5369;49.586;8.646;2023-02-15T07:34:10;33.30;;;19.37;;
10641;SDS011;5369;49.586;8.646;2023-02-15T07:36:36;33.83;;;18.00;;
10641;SDS011;5369;49.586;8.646;2023-02-15T07:39:03;30.73;;;16.73;;
10641;SDS011;5369;49.586;8.646;2023-02-15T07:41:29;28.30;;;16.77;;
10641;SDS011;5369;49.586;8.646;2023-02-15T07:43:55;31.03;;;18.00;;
10641;SDS011;5369;49.586;8.646;2023-02-15T07:46:21;28.30;;;17.07;;
10641;SDS011;5369;49.586;8.646;2023-02-15T07:48:47;28.03;;;16.40;;
10641;SDS011;5369;49.586;8.646;2023-02-15T07:51:13;30.90;;;16.90;;
10641;SDS011;5369;49.586;8.646;2023-02-15T07:53:41;27.20;;;16.20;;
10641;SDS011;5369;49.586;8.646;2023-02-15T07:56:11;27.10;;;16.40;;
10641;SDS011;5369;49.586;8.646;2023-02-15T07:58:37;26.57;;;16.13;;
10641;SDS011;5369;49.586;8.646;2023-02-15T08:01:16;24.73;;;15.23;;
10641;SDS011;5369;49.586;8.646;2023-02-15T08:03:43;25.43;;;16.33;;
10641;SDS011;5369;49.586;8.646;2023-02-15T08:06:09;33.77;;;18.20;;
10641;SDS011;5369;49.586;8.646;2023-02-15T08:08:36;28.17;;;17.27;;
10641;SDS011;5369;49.586;8.646;2023-02-15T08:13:48;23.67;;;15.53;;
10641;SDS011;5369;49.586;8.646;2023-02-15T08:16:21;26.67;;;15.67;;
10641;SDS011;5369;49.586;8.646;2023-02-15T08:18:48;24.83;;;15.50;;
10641;SDS011;5369;49.586;8.646;2023-02-15T08:21:14;27.53;;;17.23;;
10641;SDS011;5369;49.586;8.646;2023-02-15T08:23:40;27.00;;;15.93;;
10641;SDS011;5369;49.586;8.646;2023-02-15T08:26:06;29.07;;;16.63;;
10641;SDS011;5369;49.586;8.646;2023-02-15T08:28:32;28.83;;;16.47;;
10641;SDS011;5369;49.586;8.646;2023-02-15T08:33:51;32.47;;;19.77;;
10641;SDS011;5369;49.586;8.646;2023-02-15T08:36:19;28.73;;;17.83;;
10641;SDS011;5369;49.586;8.646;2023-02-15T08:38:45;29.33;;;17.17;;
10641;SDS011;5369;49.586;8.646;2023-02-15T08:41:21;30.30;;;18.37;;
10641;SDS011;5369;49.586;8.646;2023-02-15T08:43:49;28.30;;;17.07;;
10641;SDS011;5369;49.586;8.646;2023-02-15T08:46:19;26.07;;;16.33;;
10641;SDS011;5369;49.586;8.646;2023-02-15T08:48:45;29.33;;;17.87;;
10641;SDS011;5369;49.586;8.646;2023-02-15T08:51:15;28.70;;;17.23;;
10641;SDS011;5369;49.586;8.646;2023-02-15T08:53:42;28.43;;;17.63;;
10641;SDS011;5369;49.586;8.646;2023-02-15T08:56:10;27.30;;;16.37;;
10641;SDS011;5369;49.586;8.646;2023-02-15T08:58:36;30.43;;;18.33;;
10641;SDS011;5369;49.586;8.646;2023-02-15T09:01:09;31.67;;;18.33;;
10641;SDS011;5369;49.586;8.646;2023-02-15T09:03:36;32.83;;;19.13;;
10641;SDS011;5369;49.586;8.646;2023-02-15T09:06:02;28.73;;;17.70;;
10641;SDS011;5369;49.586;8.646;2023-02-15T09:08:28;31.00;;;18.60;;
10641;SDS011;5369;49.586;8.646;2023-02-15T09:11:03;28.67;;;17.60;;
10641;SDS011;5369;49.586;8.646;2023-02-15T09:13:29;32.10;;;19.00;;
10641;SDS011;5369;49.586;8.646;2023-02-15T09:16:05;29.83;;;18.47;;
10641;SDS011;5369;49.586;8.646;2023-02-15T09:18:33;28.73;;;17.70;;
10641;SDS011;5369;49.586;8.646;2023-02-15T09:21:04;29.13;;;18.13;;
10641;SDS011;5369;49.586;8.646;2023-02-15T09:23:30;26.90;;;17.23;;
10641;SDS011;5369;49.586;8.646;2023-02-15T09:25:56;27.37;;;16.73;;
10641;SDS011;5369;49.586;8.646;2023-02-15T09:28:22;26.73;;;16.57;;
10641;SDS011;5369;49.586;8.646;2023-02-15T09:30:49;29.73;;;18.77;;
10641;SDS011;5369;49.586;8.646;2023-02-15T09:33:15;27.63;;;17.53;;
10641;SDS011;5369;49.586;8.646;2023-02-15T09:35:41;30.57;;;19.53;;
10641;SDS011;5369;49.586;8.646;2023-02-15T09:38:07;33.47;;;19.63;;
10641;SDS011;5369;49.586;8.646;2023-02-15T09:40:36;28.33;;;18.10;;
10641;SDS011;5369;49.586;8.646;2023-02-15T09:43:51;33.20;;;19.47;;
10641;SDS011;5369;49.586;8.646;2023-02-15T09:45:59;35.20;;;20.70;;
10641;SDS011;5369;49.586;8.646;2023-02-15T09:48:36;33.17;;;20.23;;
10641;SDS011;5369;49.586;8.646;2023-02-15T09:51:13;31.57;;;20.87;;
10641;SDS011;5369;49.586;8.646;2023-02-15T09:54:04;31.83;;;19.93;;
10641;SDS011;5369;49.586;8.646;2023-02-15T09:56:30;33.20;;;19.60;;
10641;SDS011;5369;49.586;8.646;2023-02-15T09:59:11;34.23;;;20.73;;
10641;SDS011;5369;49.586;8.646;2023-02-15T10:01:55;39.70;;;21.87;;
10641;SDS011;5369;49.586;8.646;2023-02-15T10:04:30;41.93;;;23.57;;
10641;SDS011;5369;49.586;8.646;2023-02-15T10:07:03;38.97;;;23.13;;
10641;SDS011;5369;49.586;8.646;2023-02-15T10:09:52;40.80;;;23.73;;
10641;SDS011;5369;49.586;8.646;2023-02-15T10:15:09;41.60;;;23.27;;
10641;SDS011;5369;49.586;8.646;2023-02-15T10:22:59;34.40;;;20.67;;
10641;SDS011;5369;49.586;8.646;2023-02-15T10:28:03;38.00;;;21.73;;
10641;SDS011;5369;49.586;8.646;2023-02-15T10:30:34;34.77;;;20.40;;
10641;SDS011;5369;49.586;8.646;2023-02-15T10:33:04;39.53;;;21.90;;
10641;SDS011;5369;49.586;8.646;2023-02-15T10:38:12;37.13;;;22.00;;
10641;SDS011;5369;49.586;8.646;2023-02-15T10:43:43;41.83;;;25.60;;
10641;SDS011;5369;49.586;8.646;2023-02-15T10:54:01;38.73;;;22.70;;
10641;SDS011;5369;49.586;8.646;2023-02-15T10:56:32;36.40;;;22.67;;
10641;SDS011;5369;49.586;8.646;2023-02-15T11:01:34;33.97;;;20.67;;
10641;SDS011;5369;49.586;8.646;2023-02-15T11:06:43;35.70;;;22.17;;
10641;SDS011;5369;49.586;8.646;2023-02-15T11:09:13;35.47;;;21.63;;
10641;SDS011;5369;49.586;8.646;2023-02-15T11:11:44;37.73;;;22.47;;
10641;SDS011;5369;49.586;8.646;2023-02-15T11:14:15;38.73;;;23.27;;
10641;SDS011;5369;49.586;8.646;2023-02-15T11:16:45;37.73;;;22.23;;
10641;SDS011;5369;49.586;8.646;2023-02-15T11:19:19;37.00;;;23.10;;
10641;SDS011;5369;49.586;8.646;2023-02-15T11:21:52;36.97;;;22.73;;
10641;SDS011;5369;49.586;8.646;2023-02-15T11:24:19;41.37;;;24.33;;
10641;SDS011;5369;49.586;8.646;2023-02-15T11:27:05;36.47;;;22.37;;
10641;SDS011;5369;49.586;8.646;2023-02-15T11:29:36;38.53;;;23.70;;
10641;SDS011;5369;49.586;8.646;2023-02-15T11:32:12;37.57;;;23.17;;
10641;SDS011;5369;49.586;8.646;2023-02-15T11:37:27;35.90;;;22.27;;
10641;SDS011;5369;49.586;8.646;2023-02-15T11:39:55;35.07;;;22.53;;
10641;SDS011;5369;49.586;8.646;2023-02-15T11:42:22;32.60;;;21.33;;
10641;SDS011;5369;49.586;8.646;2023-02-15T11:45:02;36.97;;;23.17;;
10641;SDS011;5369;49.586;8.646;2023-02-15T11:47:30;36.70;;;23.23;;
10641;SDS011;5369;49.586;8.646;2023-02-15T11:49:56;38.87;;;23.93;;
10641;SDS011;5369;49.586;8.646;2023-02-15T11:52:23;38.47;;;25.20;;
10641;SDS011;5369;49.586;8.646;2023-02-15T11:54:50;39.83;;;25.70;;
10641;SDS011;5369;49.586;8.646;2023-02-15T11:57:33;37.67;;;24.93;;
10641;SDS011;5369;49.586;8.646;2023-02-15T12:00:10;38.10;;;24.27;;
10641;SDS011;5369;49.586;8.646;2023-02-15T12:02:38;38.43;;;25.53;;
10641;SDS011;5369;49.586;8.646;2023-02-15T12:05:09;38.10;;;24.77;;
10641;SDS011;5369;49.586;8.646;2023-02-15T12:07:40;38.87;;;24.33;;
10641;SDS011;5369;49.586;8.646;2023-02-15T12:10:25;36.43;;;24.23;;
10641;SDS011;5369;49.586;8.646;2023-02-15T12:13:08;38.17;;;24.77;;
10641;SDS011;5369;49.586;8.646;2023-02-15T12:15:34;41.47;;;26.57;;
10641;SDS011;5369;49.586;8.646;2023-02-15T12:18:01;37.90;;;24.77;;
10641;SDS011;5369;49.586;8.646;2023-02-15T12:20:31;38.97;;;25.07;;
10641;SDS011;5369;49.586;8.646;2023-02-15T12:23:02;40.17;;;25.87;;
10641;SDS011;5369;49.586;8.646;2023-02-15T12:25:33;38.93;;;25.00;;
10641;SDS011;5369;49.586;8.646;2023-02-15T12:28:01;37.27;;;24.87;;
10641;SDS011;5369;49.586;8.646;2023-02-15T12:30:34;39.70;;;25.10;;
10641;SDS011;5369;49.586;8.646;2023-02-15T12:35:46;38.87;;;25.07;;
10641;SDS011;5369;49.586;8.646;2023-02-15T12:40:40;36.97;;;24.13;;
10641;SDS011;5369;49.586;8.646;2023-02-15T12:43:24;39.87;;;25.27;;
10641;SDS011;5369;49.586;8.646;2023-02-15T12:45:51;38.73;;;24.43;;
10641;SDS011;5369;49.586;8.646;2023-02-15T12:48:20;40.03;;;26.23;;
10641;SDS011;5369;49.586;8.646;2023-02-15T12:50:49;38.33;;;23.57;;
10641;SDS011;5369;49.586;8.646;2023-02-15T12:53:23;40.43;;;25.57;;
10641;SDS011;5369;49.586;8.646;2023-02-15T12:55:56;40.03;;;24.50;;
10641;SDS011;5369;49.586;8.646;2023-02-15T12:58:24;40.03;;;24.70;;
10641;SDS011;5369;49.586;8.646;2023-02-15T13:03:37;41.67;;;27.17;;
10641;SDS011;5369;49.586;8.646;2023-02-15T13:06:04;37.30;;;24.10;;
10641;SDS011;5369;49.586;8.646;2023-02-15T13:08:45;41.40;;;25.37;;
10641;SDS011;5369;49.586;8.646;2023-02-15T13:11:12;40.03;;;26.20;;
10641;SDS011;5369;49.586;8.646;2023-02-15T13:13:55;37.83;;;25.47;;
10641;SDS011;5369;49.586;8.646;2023-02-15T13:16:33;37.77;;;25.03;;
10641;SDS011;5369;49.586;8.646;2023-02-15T13:19:04;41.40;;;26.53;;
10641;SDS011;5369;49.586;8.646;2023-02-15T13:21:32;42.30;;;26.93;;
10641;SDS011;5369;49.586;8.646;2023-02-15T13:24:01;43.60;;;27.00;;
10641;SDS011;5369;49.586;8.646;2023-02-15T13:26:29;42.90;;;28.40;;
10641;SDS011;5369;49.586;8.646;2023-02-15T13:28:57;41.10;;;26.20;;
10641;SDS011;5369;49.586;8.646;2023-02-15T13:31:25;40.83;;;26.67;;
10641;SDS011;5369;49.586;8.646;2023-02-15T13:33:53;42.23;;;27.47;;
10641;SDS011;5369;49.586;8.646;2023-02-15T13:36:23;40.07;;;26.30;;
10641;SDS011;5369;49.586;8.646;2023-02-15T13:38:56;41.87;;;27.20;;
10641;SDS011;5369;49.586;8.646;2023-02-15T13:41:32;42.40;;;27.63;;
10641;SDS011;5369;49.586;8.646;2023-02-15T13:44:04;50.70;;;27.63;;
10641;SDS011;5369;49.586;8.646;2023-02-15T13:46:38;45.87;;;28.83;;
10641;SDS011;5369;49.586;8.646;2023-02-15T13:49:19;44.23;;;29.17;;
10641;SDS011;5369;49.586;8.646;2023-02-15T13:54:33;43.43;;;27.97;;
10641;SDS011;5369;49.586;8.646;2023-02-15T14:01:57;43.77;;;25.57;;
10641;SDS011;5369;49.586;8.646;2023-02-15T14:12:26;49.93;;;30.63;;
10641;SDS011;5369;49.586;8.646;2023-02-15T14:17:46;50.77;;;31.13;;
10641;SDS011;5369;49.586;8.646;2023-02-15T14:20:32;44.97;;;28.50;;
10641;SDS011;5369;49.586;8.646;2023-02-15T14:25:35;45.13;;;29.07;;
10641;SDS011;5369;49.586;8.646;2023-02-15T14:28:14;46.30;;;31.43;;
10641;SDS011;5369;49.586;8.646;2023-02-15T14:30:44;44.17;;;29.53;;
10641;SDS011;5369;49.586;8.646;2023-02-15T14:35:41;47.13;;;31.60;;
10641;SDS011;5369;49.586;8.646;2023-02-15T14:38:23;48.60;;;28.33;;
10641;SDS011;5369;49.586;8.646;2023-02-15T14:40:52;45.30;;;30.90;;
10641;SDS011;5369;49.586;8.646;2023-02-15T14:43:44;47.17;;;29.33;;
10641;SDS011;5369;49.586;8.646;2023-02-15T14:46:24;40.20;;;26.73;;
10641;SDS011;5369;49.586;8.646;2023-02-15T14:49:11;44.23;;;30.00;;
10641;SDS011;5369;49.586;8.646;2023-02-15T14:56:44;49.13;;;31.93;;
10641;SDS011;5369;49.586;8.646;2023-02-15T14:59:18;53.17;;;35.30;;
10641;SDS011;5369;49.586;8.646;2023-02-15T15:02:19;53.37;;;34.33;;
10641;SDS011;5369;49.586;8.646;2023-02-15T15:07:23;50.13;;;32.13;;
10641;SDS011;5369;49.586;8.646;2023-02-15T15:12:44;46.63;;;30.33;;
10641;SDS011;5369;49.586;8.646;2023-02-15T15:15:11;54.03;;;33.17;;
10641;SDS011;5369;49.586;8.646;2023-02-15T15:22:39;52.67;;;34.40;;
10641;SDS011;5369;49.586;8.646;2023-02-15T15:27:54;50.93;;;32.33;;
10641;SDS011;5369;49.586;8.646;2023-02-15T15:48:37;49.37;;;31.00;;
10641;SDS011;5369;49.586;8.646;2023-02-15T15:51:06;50.17;;;32.87;;
10641;SDS011;5369;49.586;8.646;2023-02-15T15:53:40;53.87;;;34.20;;
10641;SDS011;5369;49.586;8.646;2023-02-15T15:56:09;57.97;;;36.33;;
10641;SDS011;5369;49.586;8.646;2023-02-15T15:58:40;53.20;;;33.57;;
10641;SDS011;5369;49.586;8.646;2023-02-15T16:01:08;58.03;;;35.77;;
10641;SDS011;5369;49.586;8.646;2023-02-15T16:03:36;56.33;;;34.63;;
10641;SDS011;5369;49.586;8.646;2023-02-15T16:06:02;53.73;;;34.73;;
10641;SDS011;5369;49.586;8.646;2023-02-15T16:08:30;51.60;;;32.57;;
10641;SDS011;5369;49.586;8.646;2023-02-15T16:10:57;49.63;;;31.87;;
10641;SDS011;5369;49.586;8.646;2023-02-15T16:13:23;49.93;;;31.40;;
10641;SDS011;5369;49.586;8.646;2023-02-15T16:15:51;53.10;;;31.27;;
10641;SDS011;5369;49.586;8.646;2023-02-15T16:18:18;45.43;;;29.57;;
10641;SDS011;5369;49.586;8.646;2023-02-15T16:21:04;52.87;;;31.90;;
10641;SDS011;5369;49.586;8.646;2023-02-15T16:28:52;54.43;;;32.27;;
10641;SDS011;5369;49.586;8.646;2023-02-15T16:31:18;49.40;;;31.07;;
10641;SDS011;5369;49.586;8.646;2023-02-15T16:33:45;49.17;;;32.40;;
10641;SDS011;5369;49.586;8.646;2023-02-15T16:36:12;55.53;;;33.67;;
10641;SDS011;5369;49.586;8.646;2023-02-15T16:41:12;49.83;;;31.43;;
10641;SDS011;5369;49.586;8.646;2023-02-15T16:43:39;55.73;;;35.03;;
10641;SDS011;5369;49.586;8.646;2023-02-15T16:46:08;62.57;;;37.37;;
10641;SDS011;5369;49.586;8.646;2023-02-15T16:48:39;54.33;;;34.10;;
10641;SDS011;5369;49.586;8.646;2023-02-15T16:51:06;54.23;;;33.90;;
10641;SDS011;5369;49.586;8.646;2023-02-15T16:53:32;56.93;;;35.13;;
10641;SDS011;5369;49.586;8.646;2023-02-15T16:55:59;54.50;;;34.50;;
10641;SDS011;5369;49.586;8.646;2023-02-15T16:58:31;51.23;;;33.37;;
10641;SDS011;5369;49.586;8.646;2023-02-15T17:00:58;51.73;;;31.20;;
10641;SDS011;5369;49.586;8.646;2023-02-15T17:03:25;51.07;;;32.27;;
10641;SDS011;5369;49.586;8.646;2023-02-15T17:05:53;50.73;;;31.37;;
10641;SDS011;5369;49.586;8.646;2023-02-15T17:08:24;55.63;;;33.87;;